Time;durP1;ratioP1;P1;durP2;ratioP2;P2;SDS_P1;SDS_P2;PMS_P1;PMS_P2;Temp;Humidity;BMP_temperature;BMP_pressure;BME280_temperature;BME280_humidity;BME280_pressure;Samples;Min_cycle;Max_cycle;Signal;HPM_P1;HPM_P2
2021/07/02 00:00:12;;;;;;;22.02;18.38;;;14.70;99.90;;;;;;4987008;28;20053;-90
2021/07/02 00:02:48;;;;;;;23.92;19.63;;;14.70;99.90;;;;;;4993872;28;20136;-89
2021/07/02 00:05:25;;;;;;;22.60;19.63;;;14.70;99.90;;;;;;4982532;28;20080;-89
2021/07/02 00:08:04;;;;;;;23.10;20.58;;;14.70;99.90;;;;;;4987410;28;20064;-89
2021/07/02 00:10:49;;;;;;;22.83;19.60;;;14.70;99.90;;;;;;4970173;28;20046;-89
2021/07/02 00:13:25;;;;;;;25.60;19.98;;;14.70;99.90;;;;;;4971008;28;20041;-89
2021/07/02 00:15:59;;;;;;;24.70;21.42;;;14.70;99.90;;;;;;4990108;28;20077;-89
2021/07/02 00:18:40;;;;;;;23.50;20.98;;;14.70;99.90;;;;;;4972104;28;20038;-90
2021/07/02 00:21:16;;;;;;;26.70;21.00;;;14.70;99.90;;;;;;4988972;28;20088;-90
2021/07/02 00:23:53;;;;;;;27.42;21.02;;;14.70;99.90;;;;;;5005735;28;20144;-90
2021/07/02 00:26:28;;;;;;;25.80;20.92;;;14.70;99.90;;;;;;4998923;28;20053;-90
2021/07/02 00:29:14;;;;;;;24.85;19.98;;;14.70;99.90;;;;;;4991763;28;20080;-90
2021/07/02 00:31:58;;;;;;;26.40;20.88;;;14.70;99.90;;;;;;4970314;28;20100;-90
2021/07/02 00:34:37;;;;;;;28.45;21.77;;;14.70;99.90;;;;;;4972490;28;20042;-90
2021/07/02 00:37:18;;;;;;;30.42;22.30;;;14.60;99.90;;;;;;4970487;28;20073;-89
2021/07/02 00:39:57;;;;;;;30.52;22.13;;;14.60;99.90;;;;;;4995396;28;20038;-90
2021/07/02 00:42:32;;;;;;;;;;;14.60;99.90;;;;;;4990925;28;20041;-90
2021/07/02 00:45:08;;;;;;;24.90;21.15;;;14.60;99.90;;;;;;4995015;28;19975;-90
2021/07/02 00:47:50;;;;;;;27.25;20.40;;;14.60;99.90;;;;;;4985235;28;20072;-90
2021/07/02 00:50:29;;;;;;;24.58;21.67;;;14.60;99.90;;;;;;4984232;28;20046;-90
2021/07/02 00:53:10;;;;;;;28.13;20.98;;;14.50;99.90;;;;;;4972188;28;20046;-90
2021/07/02 00:55:50;;;;;;;25.00;22.25;;;14.50;99.90;;;;;;4957068;28;20049;-90
2021/07/02 00:58:26;;;;;;;28.05;21.98;;;14.50;99.90;;;;;;4955510;28;20045;-89
2021/07/02 01:01:03;;;;;;;27.67;24.02;;;14.40;99.90;;;;;;5000874;28;20049;-90
2021/07/02 01:03:41;;;;;;;31.25;23.95;;;14.40;99.90;;;;;;5003584;28;20372;-90
2021/07/02 01:06:17;;;;;;;34.78;23.67;;;14.40;99.90;;;;;;4990967;28;20081;-89
2021/07/02 01:08:55;;;;;;;28.63;22.83;;;14.30;99.90;;;;;;4993130;28;20495;-89
2021/07/02 01:11:33;;;;;;;30.42;23.67;;;14.30;99.90;;;;;;4981462;28;20119;-90
2021/07/02 01:14:08;;;;;;;31.20;24.10;;;14.20;99.90;;;;;;4994118;28;20045;-89
2021/07/02 01:16:43;;;;;;;31.45;24.25;;;14.20;99.90;;;;;;4992824;28;20049;-90
2021/07/02 01:19:18;;;;;;;29.00;24.42;;;14.20;99.90;;;;;;4999568;28;20069;-89
2021/07/02 01:21:54;;;;;;;30.63;24.17;;;14.20;99.90;;;;;;4997452;28;20049;-89
2021/07/02 01:24:27;;;;;;;30.55;24.40;;;14.10;99.90;;;;;;4989480;28;20128;-89
2021/07/02 01:27:04;;;;;;;35.75;25.70;;;14.10;99.90;;;;;;5001452;28;20049;-89
2021/07/02 01:29:44;;;;;;;35.35;26.30;;;14.10;99.90;;;;;;4991442;28;20484;-89
2021/07/02 01:32:21;;;;;;;33.03;26.83;;;14.10;99.90;;;;;;4988136;28;20072;-89
2021/07/02 01:34:58;;;;;;;34.42;25.73;;;14.10;99.90;;;;;;4979661;28;20050;-89
2021/07/02 01:37:35;;;;;;;31.85;26.10;;;14.10;99.90;;;;;;4987744;28;20460;-89
2021/07/02 01:40:12;;;;;;;35.00;25.85;;;14.00;99.90;;;;;;4964420;28;20072;-89
2021/07/02 01:42:48;;;;;;;35.38;25.75;;;14.10;99.90;;;;;;4958756;28;20053;-90
2021/07/02 01:45:28;;;;;;;31.67;24.27;;;14.00;99.90;;;;;;4962007;28;20141;-90
2021/07/02 01:48:07;;;;;;;31.53;25.57;;;14.00;99.90;;;;;;4962464;28;20050;-89
2021/07/02 01:50:48;;;;;;;33.17;24.67;;;14.00;99.90;;;;;;4936762;28;20039;-90
2021/07/02 01:53:27;;;;;;;34.30;24.98;;;14.00;99.90;;;;;;4950370;28;20046;-90
2021/07/02 01:56:05;;;;;;;37.28;25.83;;;13.90;99.90;;;;;;4958393;28;20549;-89
2021/07/02 01:58:51;;;;;;;33.50;25.17;;;13.90;99.90;;;;;;4951226;28;20085;-90
2021/07/02 02:01:29;;;;;;;31.27;24.88;;;13.90;99.90;;;;;;4968034;28;20177;-90
2021/07/02 02:04:07;;;;;;;37.88;26.08;;;13.90;99.90;;;;;;4980069;28;20046;-89
2021/07/02 02:06:47;;;;;;;36.88;25.45;;;13.90;99.90;;;;;;4970245;28;20046;-90
2021/07/02 02:09:27;;;;;;;36.97;26.70;;;13.80;99.90;;;;;;4982025;28;20053;-90
2021/07/02 02:12:05;;;;;;;33.88;26.20;;;13.70;99.90;;;;;;4983970;28;20479;-90
2021/07/02 02:14:46;;;;;;;36.50;26.92;;;13.70;99.90;;;;;;4973870;28;20037;-90
2021/07/02 02:17:22;;;;;;;39.90;27.10;;;13.70;99.90;;;;;;4970855;28;20061;-89
2021/07/02 02:19:59;;;;;;;40.95;26.52;;;13.70;99.90;;;;;;4954075;28;20050;-90
2021/07/02 02:22:39;;;;;;;42.17;27.63;;;13.70;99.90;;;;;;4957922;28;20104;-90
2021/07/02 02:25:17;;;;;;;33.67;26.60;;;13.60;99.90;;;;;;4991508;28;20049;-90
2021/07/02 02:27:57;;;;;;;36.30;26.98;;;13.60;99.90;;;;;;4968887;28;20045;-90
2021/07/02 02:30:36;;;;;;;41.45;27.27;;;13.60;99.90;;;;;;4949499;28;20129;-90
2021/07/02 02:33:17;;;;;;;42.13;27.20;;;13.60;99.90;;;;;;4951827;28;20049;-90
2021/07/02 02:35:56;;;;;;;39.55;27.30;;;13.60;99.90;;;;;;4986013;28;20046;-90
2021/07/02 02:38:36;;;;;;;36.95;26.45;;;13.60;99.90;;;;;;4972264;28;20046;-89
2021/07/02 02:41:16;;;;;;;37.30;27.92;;;13.60;99.90;;;;;;4990595;28;20042;-90
2021/07/02 02:43:56;;;;;;;38.03;28.08;;;13.60;99.90;;;;;;4972215;28;20046;-90
2021/07/02 02:46:36;;;;;;;36.88;27.30;;;13.60;99.90;;;;;;4991734;28;20510;-90
2021/07/02 02:49:11;;;;;;;;;;;13.60;99.90;;;;;;4963827;28;20050;-90
2021/07/02 02:51:50;;;;;;;32.90;26.13;;;13.60;99.90;;;;;;4986134;28;19921;-90
2021/07/02 02:54:34;;;;;;;41.92;28.05;;;13.60;99.90;;;;;;4962988;28;20054;-90
2021/07/02 02:57:10;;;;;;;40.03;28.52;;;13.60;99.90;;;;;;4971315;28;20054;-90
2021/07/02 02:59:55;;;;;;;41.83;28.15;;;13.60;99.90;;;;;;4989007;28;20503;-90
2021/07/02 03:02:36;;;;;;;39.80;28.50;;;13.60;99.90;;;;;;4987119;28;20071;-90
2021/07/02 03:05:37;;;;;;;44.67;28.83;;;13.60;99.90;;;;;;4967454;28;20045;-90
2021/07/02 03:08:19;;;;;;;46.13;29.08;;;13.60;99.90;;;;;;4952464;28;20042;-91
2021/07/02 03:11:01;;;;;;;45.28;28.88;;;13.60;99.90;;;;;;4992622;28;20045;-90
2021/07/02 03:13:44;;;;;;;41.85;27.48;;;13.60;99.90;;;;;;4987352;28;20042;-90
2021/07/02 03:16:22;;;;;;;41.78;28.48;;;13.60;99.90;;;;;;4985887;28;20091;-90
2021/07/02 03:19:00;;;;;;;40.83;28.77;;;13.60;99.90;;;;;;4994121;28;20060;-90
2021/07/02 03:21:43;;;;;;;36.47;26.98;;;13.60;99.90;;;;;;4964136;28;20111;-90
2021/07/02 03:24:22;;;;;;;42.22;28.58;;;13.60;99.90;;;;;;4982434;28;20049;-90
2021/07/02 03:27:02;;;;;;;49.92;30.20;;;13.60;99.90;;;;;;4989407;28;20045;-90
2021/07/02 03:29:47;;;;;;;44.83;27.55;;;13.60;99.90;;;;;;4931753;28;20134;-90
2021/07/02 03:32:35;;;;;;;43.25;27.92;;;13.60;99.90;;;;;;4949970;28;20062;-90
2021/07/02 03:35:18;;;;;;;41.83;28.85;;;13.60;99.90;;;;;;4964494;28;20042;-90
2021/07/02 03:38:01;;;;;;;46.03;27.50;;;13.60;99.90;;;;;;4962644;28;20046;-90
2021/07/02 03:40:44;;;;;;;44.42;28.33;;;13.60;99.90;;;;;;4935096;28;20069;-90
2021/07/02 03:43:30;;;;;;;45.90;29.70;;;13.60;99.90;;;;;;4944119;28;20096;-90
2021/07/02 03:46:15;;;;;;;48.03;30.38;;;13.50;99.90;;;;;;4948566;28;20046;-90
2021/07/02 03:48:57;;;;;;;48.83;29.77;;;13.50;99.90;;;;;;4984129;28;20135;-90
2021/07/02 03:51:40;;;;;;;38.80;28.30;;;13.50;99.90;;;;;;4962461;28;20373;-90
2021/07/02 03:54:23;;;;;;;53.70;29.85;;;13.50;99.90;;;;;;4975805;28;20042;-90
2021/07/02 03:57:12;;;;;;;57.03;30.75;;;13.40;99.90;;;;;;4990317;28;20270;-90
2021/07/02 03:59:56;;;;;;;42.08;29.33;;;13.40;99.90;;;;;;4953965;28;20052;-90
2021/07/02 04:02:37;;;;;;;47.35;30.60;;;13.40;99.90;;;;;;4959624;28;20060;-90
2021/07/02 04:05:21;;;;;;;44.53;29.50;;;13.40;99.90;;;;;;4967928;28;20504;-90
2021/07/02 04:08:01;;;;;;;53.35;31.23;;;13.40;99.90;;;;;;4981130;28;20349;-91
2021/07/02 04:10:51;;;;;;;54.28;31.30;;;13.30;99.90;;;;;;4964325;28;20045;-90
2021/07/02 04:13:29;;;;;;;60.47;31.63;;;13.30;99.90;;;;;;4976233;28;20263;-91
2021/07/02 04:16:13;;;;;;;57.40;31.83;;;13.30;99.90;;;;;;4980864;28;20049;-90
2021/07/02 04:18:52;;;;;;;44.15;29.33;;;13.30;99.90;;;;;;4990485;28;20115;-90
2021/07/02 04:21:34;;;;;;;47.88;31.05;;;13.30;99.90;;;;;;4975523;28;20388;-90
2021/07/02 04:24:15;;;;;;;44.78;31.10;;;13.30;99.90;;;;;;4964664;28;20052;-90
2021/07/02 04:27:17;;;;;;;43.00;29.98;;;13.20;99.90;;;;;;4978386;28;20061;-90
2021/07/02 04:30:04;;;;;;;43.60;30.10;;;13.30;99.90;;;;;;4970291;28;20073;-91
2021/07/02 04:32:52;;;;;;;44.87;29.70;;;13.30;99.90;;;;;;4987459;28;20097;-91
2021/07/02 04:35:34;;;;;;;44.55;29.10;;;13.30;99.90;;;;;;4962423;28;20758;-91
2021/07/02 04:38:18;;;;;;;45.03;29.52;;;13.30;99.90;;;;;;4971131;28;20058;-91
2021/07/02 04:41:01;;;;;;;45.13;30.80;;;13.30;99.90;;;;;;4972458;28;20042;-91
2021/07/02 04:43:46;;;;;;;;;;;13.40;99.90;;;;;;4974068;28;20041;-91
2021/07/02 04:46:30;;;;;;;41.92;27.88;;;13.40;99.90;;;;;;4972314;28;19960;-91
2021/07/02 04:49:17;;;;;;;44.17;29.35;;;13.40;99.90;;;;;;4968226;28;20416;-92
2021/07/02 04:52:00;;;;;;;41.75;28.55;;;13.40;99.90;;;;;;4963926;28;20419;-92
2021/07/02 04:54:50;;;;;;;42.10;29.00;;;13.40;99.90;;;;;;4959539;28;20503;-91
2021/07/02 04:57:36;;;;;;;38.28;28.45;;;13.50;99.90;;;;;;4974623;28;20047;-91
2021/07/02 05:00:24;;;;;;;40.85;28.55;;;13.50;99.90;;;;;;4972130;28;20053;-91
2021/07/02 05:03:06;;;;;;;40.35;27.35;;;13.50;99.90;;;;;;4965725;28;20616;-91
2021/07/02 05:05:56;;;;;;;42.35;29.15;;;13.60;99.90;;;;;;4954827;28;20049;-92
2021/07/02 05:08:43;;;;;;;36.72;26.80;;;13.60;99.90;;;;;;4980799;28;20041;-92
2021/07/02 05:11:28;;;;;;;39.78;27.35;;;13.70;99.90;;;;;;4981031;28;20053;-91
2021/07/02 05:14:18;;;;;;;36.08;26.58;;;13.80;99.90;;;;;;4992235;28;20053;-90
2021/07/02 05:17:06;;;;;;;34.45;26.23;;;13.80;99.90;;;;;;4945127;28;20433;-92
2021/07/02 05:19:52;;;;;;;37.83;28.33;;;13.90;99.90;;;;;;4955586;28;20095;-92
2021/07/02 05:22:37;;;;;;;35.85;26.83;;;14.00;99.90;;;;;;4989518;28;20101;-92
2021/07/02 05:25:21;;;;;;;34.50;27.08;;;14.00;99.90;;;;;;4967630;28;20070;-92
2021/07/02 05:28:05;;;;;;;36.20;27.30;;;14.00;99.90;;;;;;4990224;28;20057;-91
2021/07/02 05:30:53;;;;;;;33.00;26.00;;;14.10;99.90;;;;;;4972380;28;20495;-92
2021/07/02 05:33:35;;;;;;;34.20;26.17;;;14.10;99.90;;;;;;4960489;28;20369;-91
2021/07/02 05:36:17;;;;;;;36.17;26.27;;;14.20;99.90;;;;;;4980891;28;20072;-91
2021/07/02 05:39:00;;;;;;;32.38;25.73;;;14.20;99.90;;;;;;4988449;28;20057;-90
2021/07/02 05:41:43;;;;;;;31.80;26.10;;;14.30;99.90;;;;;;4948303;28;20124;-91
2021/07/02 05:44:25;;;;;;;33.85;25.55;;;14.30;99.90;;;;;;4973944;28;20046;-91
2021/07/02 05:47:07;;;;;;;37.10;26.05;;;14.40;99.90;;;;;;4971430;28;20116;-91
2021/07/02 05:49:53;;;;;;;30.67;23.98;;;14.40;99.90;;;;;;4945097;28;20043;-90
2021/07/02 05:52:35;;;;;;;34.60;25.20;;;14.50;99.90;;;;;;4962191;28;20046;-90
2021/07/02 05:55:15;;;;;;;31.20;24.40;;;14.60;99.90;;;;;;4975703;28;20120;-91
2021/07/02 05:57:51;;;;;;;31.38;24.58;;;14.60;99.90;;;;;;5008053;28;20105;-91
2021/07/02 06:00:27;;;;;;;33.80;24.58;;;14.70;99.90;;;;;;4964166;28;20392;-91
2021/07/02 06:03:12;;;;;;;30.95;24.50;;;14.70;99.90;;;;;;4992194;28;20056;-91
2021/07/02 06:05:59;;;;;;;31.38;24.00;;;14.80;99.90;;;;;;4959732;28;20099;-90
2021/07/02 06:08:47;;;;;;;34.97;24.52;;;14.80;99.90;;;;;;4960306;28;20180;-90
2021/07/02 06:11:28;;;;;;;29.05;23.08;;;14.90;99.90;;;;;;4958268;28;20535;-91
2021/07/02 06:14:10;;;;;;;30.55;24.17;;;14.90;99.90;;;;;;4969500;28;20046;-90
2021/07/02 06:16:55;;;;;;;27.10;22.08;;;15.00;99.90;;;;;;4963514;28;20045;-90
2021/07/02 06:19:38;;;;;;;31.20;22.30;;;15.10;99.90;;;;;;4965128;28;20049;-90
2021/07/02 06:22:23;;;;;;;24.55;22.02;;;15.20;99.90;;;;;;4979934;28;20082;-91
2021/07/02 06:25:02;;;;;;;26.35;21.60;;;15.30;99.90;;;;;;5011602;28;20133;-91
2021/07/02 06:27:51;;;;;;;28.13;22.15;;;15.40;99.90;;;;;;4970718;28;20096;-91
2021/07/02 06:30:31;;;;;;;30.10;21.80;;;15.50;99.90;;;;;;4960896;28;20061;-92
2021/07/02 06:33:17;;;;;;;25.45;21.17;;;15.60;99.90;;;;;;4964999;28;20045;-91
2021/07/02 06:36:02;;;;;;;26.13;20.65;;;15.70;99.90;;;;;;4967435;28;20428;-91
2021/07/02 06:38:47;;;;;;;22.30;20.00;;;15.70;99.90;;;;;;4958234;28;20100;-91
2021/07/02 06:41:31;;;;;;;25.80;20.08;;;15.80;99.90;;;;;;4952940;28;20598;-91
2021/07/02 06:44:13;;;;;;;30.23;20.75;;;15.90;99.90;;;;;;4947761;28;20060;-90
2021/07/02 06:46:56;;;;;;;21.70;19.48;;;16.00;99.90;;;;;;4962728;28;20050;-91
2021/07/02 06:49:39;;;;;;;23.85;20.63;;;16.00;99.90;;;;;;4946917;28;20046;-90
2021/07/02 06:52:23;;;;;;;22.20;19.80;;;16.10;99.90;;;;;;4960004;28;20045;-91
2021/07/02 06:55:12;;;;;;;21.77;19.57;;;16.10;99.90;;;;;;4986123;28;20123;-92
2021/07/02 06:57:54;;;;;;;23.42;20.08;;;16.20;99.90;;;;;;4941799;28;20077;-91
2021/07/02 07:00:38;;;;;;;21.27;19.20;;;16.20;99.90;;;;;;4934698;28;21040;-91
2021/07/02 07:03:17;;;;;;;21.13;18.92;;;16.30;99.90;;;;;;4942926;28;20088;-90
2021/07/02 07:06:02;;;;;;;23.35;19.63;;;16.40;99.90;;;;;;4954426;28;20050;-90
2021/07/02 07:08:46;;;;;;;22.15;19.40;;;16.50;99.90;;;;;;4935532;28;20049;-90
2021/07/02 07:11:28;;;;;;;21.30;19.05;;;16.50;99.90;;;;;;4940954;28;20129;-89
2021/07/02 07:14:14;;;;;;;22.13;18.75;;;16.50;99.90;;;;;;4944567;28;20137;-90
2021/07/02 07:16:55;;;;;;;21.35;19.17;;;16.60;99.90;;;;;;4939770;28;20133;-91
2021/07/02 07:19:39;;;;;;;20.13;18.13;;;16.70;99.90;;;;;;4934892;28;20046;-91
2021/07/02 07:22:21;;;;;;;20.80;18.52;;;16.80;99.90;;;;;;4960648;28;20050;-91
2021/07/02 07:25:03;;;;;;;20.25;18.10;;;16.90;99.90;;;;;;4970532;28;21508;-91
2021/07/02 07:27:49;;;;;;;20.13;18.00;;;17.00;99.90;;;;;;4941035;28;20078;-91
2021/07/02 07:30:33;;;;;;;20.75;18.58;;;17.10;99.90;;;;;;4928677;28;20741;-91
2021/07/02 07:33:18;;;;;;;19.77;17.77;;;17.20;99.90;;;;;;4963833;28;20099;-92
2021/07/02 07:36:00;;;;;;;19.85;17.88;;;17.30;99.90;;;;;;4983773;28;20042;-90
2021/07/02 07:38:45;;;;;;;19.48;17.42;;;17.40;99.90;;;;;;4948834;28;20049;-91
2021/07/02 07:41:32;;;;;;;20.90;18.40;;;17.50;99.90;;;;;;4966518;28;20038;-91
2021/07/02 07:44:15;;;;;;;19.52;17.42;;;17.70;99.90;;;;;;4965477;28;20069;-92
2021/07/02 07:47:00;;;;;;;23.88;18.50;;;18.00;99.90;;;;;;4970832;28;20062;-90
2021/07/02 07:49:46;;;;;;;19.75;17.70;;;18.20;99.90;;;;;;4948344;28;20134;-90
2021/07/02 07:55:28;;;;;;;17.95;16.17;;;18.60;99.90;;;;;;4975447;28;20491;-91
2021/07/02 07:58:18;;;;;;;18.63;15.95;;;18.70;99.90;;;;;;4981037;28;20060;-90
2021/07/02 08:01:06;;;;;;;18.67;16.65;;;18.80;99.90;;;;;;4962433;28;20046;-91
2021/07/02 08:03:54;;;;;;;17.27;15.20;;;18.90;99.90;;;;;;4969064;28;20129;-91
2021/07/02 08:06:36;;;;;;;19.70;16.55;;;18.90;99.90;;;;;;4969834;28;20295;-90
2021/07/02 08:09:24;;;;;;;17.05;15.27;;;18.90;99.90;;;;;;4974742;28;20045;-90
2021/07/02 08:12:06;;;;;;;18.08;16.15;;;19.00;99.90;;;;;;4982986;28;20045;-90
2021/07/02 08:15:13;;;;;;;19.00;16.95;;;19.00;99.90;;;;;;4983445;28;20395;-90
2021/07/02 08:18:08;;;;;;;17.35;15.38;;;19.10;99.90;;;;;;4938542;28;20045;-90
2021/07/02 08:21:00;;;;;;;16.98;15.18;;;19.10;99.90;;;;;;4952933;28;20045;-90
2021/07/02 08:23:46;;;;;;;16.63;14.98;;;19.10;99.90;;;;;;4963462;28;20046;-91
2021/07/02 08:26:34;;;;;;;18.48;16.35;;;19.20;99.90;;;;;;4972449;28;20123;-91
2021/07/02 08:29:28;;;;;;;18.13;15.18;;;19.30;99.90;;;;;;4966791;28;20049;-91
2021/07/02 08:32:15;;;;;;;15.95;14.32;;;19.40;99.90;;;;;;4959659;28;20085;-90
2021/07/02 08:34:58;;;;;;;18.33;15.68;;;19.60;99.90;;;;;;4949063;28;20042;-91
2021/07/02 08:37:52;;;;;;;15.27;13.77;;;19.80;99.90;;;;;;4947766;28;20567;-92
2021/07/02 08:40:35;;;;;;;19.25;16.17;;;20.00;99.90;;;;;;4943986;28;20050;-91
2021/07/02 08:43:19;;;;;;;17.55;14.45;;;20.00;99.90;;;;;;4942568;28;20138;-90
2021/07/02 08:46:03;;;;;;;15.88;14.25;;;20.10;99.90;;;;;;4960802;28;20057;-91
2021/07/02 08:48:52;;;;;;;14.98;13.57;;;20.20;99.90;;;;;;4944456;28;20599;-90
2021/07/02 08:51:35;;;;;;;16.67;14.95;;;20.40;99.90;;;;;;4958203;28;20159;-90
2021/07/02 08:54:21;;;;;;;18.17;15.02;;;20.50;99.90;;;;;;4945282;28;20484;-90
2021/07/02 08:57:02;;;;;;;17.08;14.30;;;20.70;99.90;;;;;;4953793;28;20049;-91
2021/07/02 08:59:53;;;;;;;17.08;13.48;;;20.60;99.90;;;;;;4942386;28;20414;-90
2021/07/02 09:02:42;;;;;;;16.02;13.40;;;20.60;99.90;;;;;;4934754;28;20285;-90
2021/07/02 09:05:33;;;;;;;16.27;12.82;;;20.60;99.90;;;;;;4942905;28;20057;-90
2021/07/02 09:08:20;;;;;;;15.07;13.57;;;20.70;99.90;;;;;;4963739;28;20054;-90
2021/07/02 09:11:31;;;;;;;14.15;12.40;;;20.80;99.90;;;;;;4934327;28;20034;-91
2021/07/02 09:14:27;;;;;;;15.40;12.85;;;20.70;99.90;;;;;;4918592;28;20050;-90
2021/07/02 09:17:15;;;;;;;14.77;13.30;;;20.80;99.90;;;;;;4970747;28;20053;-90
2021/07/02 09:20:09;;;;;;;13.20;11.82;;;20.70;99.90;;;;;;4959030;28;20460;-90
2021/07/02 09:23:00;;;;;;;16.90;13.20;;;20.70;99.90;;;;;;4941373;28;20046;-90
2021/07/02 09:25:47;;;;;;;15.15;11.30;;;20.70;99.90;;;;;;4937055;28;20042;-90
2021/07/02 09:28:36;;;;;;;12.45;11.00;;;20.80;99.90;;;;;;4945752;28;20053;-91
2021/07/02 09:31:37;;;;;;;13.32;11.93;;;20.80;99.90;;;;;;4948460;28;20050;-90
2021/07/02 09:34:24;;;;;;;11.32;10.23;;;20.80;99.90;;;;;;4964316;28;20070;-90
2021/07/02 09:37:28;;;;;;;11.32;10.07;;;20.80;99.90;;;;;;4990377;28;20053;-90
2021/07/02 09:40:26;;;;;;;11.23;8.98;;;20.90;99.90;;;;;;4955727;28;20052;-91
2021/07/02 09:43:09;;;;;;;10.57;8.43;;;20.90;99.90;;;;;;4984147;28;20055;-90
2021/07/02 09:45:56;;;;;;;6.47;5.70;;;21.00;99.90;;;;;;4971066;28;20446;-90
2021/07/02 09:48:41;;;;;;;7.65;5.70;;;21.10;99.90;;;;;;4942665;28;20309;-90
2021/07/02 09:51:31;;;;;;;6.38;5.65;;;21.10;99.90;;;;;;4967205;28;20051;-90
2021/07/02 09:54:13;;;;;;;7.20;5.95;;;21.20;99.90;;;;;;4966061;28;20100;-90
2021/07/02 09:57:15;;;;;;;6.63;5.32;;;21.30;99.90;;;;;;4953801;28;20471;-90
2021/07/02 10:00:22;;;;;;;7.28;5.40;;;21.50;99.90;;;;;;4946772;28;20049;-90
2021/07/02 10:03:12;;;;;;;11.15;5.75;;;21.60;99.90;;;;;;4944033;28;20128;-90
2021/07/02 10:05:57;;;;;;;7.07;5.43;;;21.80;99.90;;;;;;4947079;28;20096;-90
2021/07/02 10:08:46;;;;;;;7.55;5.82;;;21.90;99.90;;;;;;4951446;28;20128;-91
2021/07/02 10:11:25;;;;;;;6.55;5.07;;;22.00;99.90;;;;;;4984404;28;20045;-89
2021/07/02 10:14:07;;;;;;;7.20;5.70;;;22.10;99.90;;;;;;4973842;28;20054;-91
2021/07/02 10:16:55;;;;;;;6.88;5.82;;;22.20;99.90;;;;;;4981727;28;20041;-90
2021/07/02 10:19:37;;;;;;;8.90;6.47;;;22.20;99.90;;;;;;4963218;28;20065;-90
2021/07/02 10:22:21;;;;;;;9.55;6.80;;;22.20;99.90;;;;;;4964074;28;20133;-90
2021/07/02 10:25:02;;;;;;;7.57;6.80;;;22.20;99.90;;;;;;4980355;28;20050;-91
2021/07/02 10:27:47;;;;;;;9.68;6.97;;;22.20;99.90;;;;;;4953136;28;20104;-90
2021/07/02 10:30:30;;;;;;;8.38;6.68;;;22.20;99.90;;;;;;4978242;28;20048;-90
2021/07/02 10:33:21;;;;;;;7.93;7.13;;;22.20;99.90;;;;;;4986793;28;20060;-90
2021/07/02 10:36:10;;;;;;;10.85;6.97;;;22.20;99.90;;;;;;4991240;28;20049;-90
2021/07/02 10:38:56;;;;;;;8.57;6.90;;;22.30;99.90;;;;;;4960959;28;20167;-90
2021/07/02 10:41:38;;;;;;;;;;;22.30;99.90;;;;;;4952504;28;20054;-90
2021/07/02 10:44:23;;;;;;;10.88;8.07;;;22.30;99.90;;;;;;4962589;28;19965;-90
2021/07/02 10:47:08;;;;;;;8.73;6.72;;;22.40;99.90;;;;;;4971754;28;20049;-91
2021/07/02 10:49:54;;;;;;;8.13;7.10;;;22.40;99.90;;;;;;4950199;28;20093;-90
2021/07/02 10:52:41;;;;;;;8.30;6.75;;;22.50;99.90;;;;;;4987569;28;20049;-90
2021/07/02 10:55:32;;;;;;;8.75;7.18;;;22.60;99.90;;;;;;4983029;28;20045;-90
2021/07/02 10:58:02;;;;;;;7.95;6.57;;;22.70;99.90;;;;;;4995190;28;20133;-89
2021/07/02 11:01:14;;;;;;;9.40;7.25;;;22.80;99.90;;;;;;4964006;28;20594;-90
2021/07/02 11:03:54;;;;;;;10.23;7.68;;;22.80;99.90;;;;;;4947701;28;20052;-89
2021/07/02 11:06:44;;;;;;;8.65;7.07;;;22.70;99.90;;;;;;4976876;28;20132;-90
2021/07/02 11:09:14;;;;;;;10.27;6.45;;;22.60;99.90;;;;;;4976113;28;20042;-89
2021/07/02 11:12:08;;;;;;;8.90;6.50;;;22.60;99.90;;;;;;4984453;28;20046;-91
2021/07/02 11:14:55;;;;;;;8.05;6.90;;;22.60;99.90;;;;;;4959865;28;20082;-90
2021/07/02 11:17:33;;;;;;;9.00;7.60;;;22.60;99.90;;;;;;4973021;28;20052;-90
2021/07/02 11:22:35;;;;;;;9.95;8.23;;;22.70;99.90;;;;;;4989551;28;20052;-89
2021/07/02 11:25:32;;;;;;;12.05;8.05;;;22.80;99.90;;;;;;4972440;28;20407;-89
2021/07/02 11:28:18;;;;;;;11.25;8.98;;;22.80;99.90;;;;;;4974768;28;20045;-91
2021/07/02 11:31:04;;;;;;;13.15;10.98;;;22.70;99.90;;;;;;4953244;28;20077;-90
2021/07/02 11:33:45;;;;;;;12.38;9.23;;;22.70;99.90;;;;;;4959841;28;20053;-89
2021/07/02 11:36:26;;;;;;;14.05;9.38;;;22.60;99.90;;;;;;4958030;28;20097;-90
2021/07/02 11:39:04;;;;;;;11.88;8.70;;;22.60;99.90;;;;;;4960165;28;20045;-91
2021/07/02 11:41:50;;;;;;;11.65;9.38;;;22.70;99.90;;;;;;4941479;28;20066;-90
2021/07/02 11:44:27;;;;;;;12.38;10.07;;;22.80;99.90;;;;;;4947266;28;20481;-90
2021/07/02 11:47:08;;;;;;;10.10;7.10;;;22.80;99.90;;;;;;4962429;28;20116;-90
2021/07/02 11:49:51;;;;;;;11.82;7.90;;;22.90;99.90;;;;;;4946896;28;20416;-90
2021/07/02 11:52:37;;;;;;;12.50;10.13;;;23.00;99.90;;;;;;4958680;28;20059;-90
2021/07/02 11:55:26;;;;;;;8.02;6.53;;;23.10;99.90;;;;;;4963159;28;20046;-90
2021/07/02 11:58:21;;;;;;;14.18;8.57;;;23.20;99.90;;;;;;4982022;28;20042;-90
2021/07/02 12:01:15;;;;;;;12.25;8.43;;;23.30;99.90;;;;;;4940488;28;20055;-90
2021/07/02 12:03:55;;;;;;;8.93;6.40;;;23.40;99.90;;;;;;4950343;28;20065;-90
2021/07/02 12:06:33;;;;;;;11.93;7.38;;;23.50;99.90;;;;;;4963148;28;20528;-90
2021/07/02 12:09:11;;;;;;;11.75;7.95;;;23.60;99.90;;;;;;4956538;28;20064;-91
2021/07/02 12:11:54;;;;;;;12.43;8.48;;;23.80;99.90;;;;;;4967003;28;20052;-90
2021/07/02 12:14:39;;;;;;;10.98;7.65;;;24.00;99.90;;;;;;4963989;28;20059;-90
2021/07/02 12:17:18;;;;;;;8.60;6.47;;;24.10;99.90;;;;;;4965595;28;20042;-90
2021/07/02 12:19:58;;;;;;;10.13;6.65;;;24.20;99.90;;;;;;4983272;28;20070;-90
2021/07/02 12:22:35;;;;;;;6.43;5.72;;;24.30;99.90;;;;;;4974876;28;20422;-90
2021/07/02 12:25:19;;;;;;;7.65;6.07;;;24.40;99.90;;;;;;4959163;28;20077;-89
2021/07/02 12:28:04;;;;;;;7.82;6.28;;;24.40;99.90;;;;;;4976666;28;20046;-90
2021/07/02 12:30:58;;;;;;;9.75;6.82;;;24.50;99.90;;;;;;4954912;28;20042;-90
2021/07/02 12:33:44;;;;;;;9.00;6.30;;;24.60;99.90;;;;;;4951016;28;20048;-90
2021/07/02 12:36:24;;;;;;;8.35;5.90;;;24.70;99.90;;;;;;4969253;28;20442;-91
2021/07/02 12:39:09;;;;;;;10.00;6.30;;;24.70;99.90;;;;;;4972481;28;20054;-90
2021/07/02 12:41:53;;;;;;;6.35;4.63;;;24.70;99.90;;;;;;4953511;28;20045;-90
2021/07/02 12:44:32;;;;;;;7.30;6.47;;;24.60;99.90;;;;;;4966882;28;20119;-90
2021/07/02 12:47:14;;;;;;;8.85;5.38;;;24.60;99.90;;;;;;4965880;28;20073;-90
2021/07/02 12:49:51;;;;;;;7.43;5.70;;;24.60;99.90;;;;;;4975361;28;20088;-90
2021/07/02 12:55:22;;;;;;;7.63;4.88;;;24.70;99.90;;;;;;4996060;28;20416;-90
2021/07/02 12:58:10;;;;;;;6.15;5.35;;;24.80;99.90;;;;;;4942825;28;20934;-91
2021/07/02 13:00:50;;;;;;;8.13;5.13;;;24.80;99.90;;;;;;4966518;28;20062;-90
2021/07/02 13:03:30;;;;;;;8.60;7.20;;;24.80;99.90;;;;;;4960358;28;20046;-91
2021/07/02 13:06:16;;;;;;;6.95;4.20;;;24.80;99.90;;;;;;4965003;28;20050;-90
2021/07/02 13:08:53;;;;;;;8.15;4.88;;;24.90;99.90;;;;;;4989183;28;20137;-90
2021/07/02 13:11:29;;;;;;;4.72;4.15;;;24.90;99.90;;;;;;4972491;28;20159;-90
2021/07/02 13:14:31;;;;;;;5.25;4.72;;;25.00;99.90;;;;;;4970610;28;20472;-90
2021/07/02 13:17:10;;;;;;;5.70;4.43;;;25.10;99.90;;;;;;4944327;28;20085;-90
2021/07/02 13:19:57;;;;;;;6.10;5.25;;;25.00;99.90;;;;;;4972942;28;20077;-90
2021/07/02 13:22:33;;;;;;;6.30;5.15;;;25.00;99.90;;;;;;4965850;28;20073;-90
2021/07/02 13:25:13;;;;;;;7.72;5.47;;;24.90;99.90;;;;;;4977768;28;20049;-91
2021/07/02 13:28:11;;;;;;;8.25;5.90;;;24.80;99.90;;;;;;4971253;28;20045;-90
2021/07/02 13:30:46;;;;;;;8.52;6.45;;;24.80;99.90;;;;;;4959531;28;20160;-90
2021/07/02 13:33:22;;;;;;;;;;;24.80;99.90;;;;;;4959060;28;20056;-90
2021/07/02 13:36:14;;;;;;;8.07;5.43;;;24.80;99.90;;;;;;4961083;28;19929;-89
2021/07/02 13:39:07;;;;;;;7.88;5.72;;;24.70;99.90;;;;;;4948174;28;20050;-90
2021/07/02 13:41:47;;;;;;;8.32;5.95;;;24.70;99.90;;;;;;4944480;28;20057;-90
2021/07/02 13:44:27;;;;;;;7.80;5.85;;;24.70;99.90;;;;;;4957350;28;20116;-90
2021/07/02 13:47:06;;;;;;;5.75;4.68;;;24.70;99.90;;;;;;4974865;28;20383;-91
2021/07/02 13:49:47;;;;;;;8.50;5.65;;;24.70;99.90;;;;;;4948605;28;20105;-90
2021/07/02 13:52:29;;;;;;;8.93;5.80;;;24.60;99.90;;;;;;4962380;28;20069;-91
2021/07/02 13:55:08;;;;;;;6.28;5.18;;;24.60;99.90;;;;;;4977081;28;20053;-90
2021/07/02 13:57:45;;;;;;;7.47;5.53;;;24.50;99.90;;;;;;4959733;28;20042;-90
2021/07/02 14:00:22;;;;;;;12.52;8.60;;;24.50;99.90;;;;;;4983598;28;20301;-90
2021/07/02 14:02:59;;;;;;;11.85;10.65;;;24.40;99.90;;;;;;4982301;28;20070;-90